Time;durP1;ratioP1;P1;durP2;ratioP2;P2;SDS_P1;SDS_P2;PMS_P1;PMS_P2;Temp;Humidity;BMP_temperature;BMP_pressure;BME280_temperature;BME280_humidity;BME280_pressure;Samples;Min_cycle;Max_cycle;Signal;HPM_P1;HPM_P2
2021/12/05 00:22:47;;;;;;;15.90;14.38;;;8.30;99.90;;;;;;4991631;28;20019;-71
2021/12/05 00:25:21;;;;;;;17.33;14.55;;;8.30;99.90;;;;;;4989144;28;20030;-71
2021/12/05 00:27:56;;;;;;;15.20;13.82;;;8.40;99.90;;;;;;4981942;28;20030;-71
2021/12/05 01:13:30;;;;;;;20.02;18.17;;;8.50;99.90;;;;;;4973245;28;20073;-71
2021/12/05 01:15:59;;;;;;;21.00;18.92;;;8.50;99.90;;;;;;4988662;28;20489;-71
2021/12/05 01:18:25;;;;;;;19.55;17.63;;;8.50;99.90;;;;;;4990131;28;20034;-71
2021/12/05 01:20:58;;;;;;;20.10;18.30;;;8.50;99.90;;;;;;4988479;28;20064;-71
2021/12/05 01:23:36;;;;;;;21.85;19.27;;;8.50;99.90;;;;;;4990505;28;20030;-71
2021/12/05 01:26:11;;;;;;;22.25;20.25;;;8.50;99.90;;;;;;4989867;28;20376;-71
2021/12/05 01:55:37;;;;;;;26.80;24.02;;;8.40;99.90;;;;;;4989142;28;20034;-71
2021/12/05 02:33:45;;;;;;;18.25;14.95;;;8.40;99.90;;;;;;4989585;28;20041;-71
2021/12/05 02:41:35;;;;;;;17.77;16.08;;;8.50;99.90;;;;;;4989471;28;20109;-71
2021/12/05 02:44:04;;;;;;;21.17;19.02;;;8.50;99.90;;;;;;4990018;28;20463;-71
2021/12/05 02:46:30;;;;;;;20.38;18.42;;;8.50;99.90;;;;;;4990620;28;20484;-71
2021/12/05 02:49:01;;;;;;;19.27;17.38;;;8.50;99.90;;;;;;4987782;28;20034;-70
2021/12/05 02:51:28;;;;;;;17.47;15.97;;;8.70;99.90;;;;;;4985647;28;20026;-71
2021/12/05 02:54:08;;;;;;;19.33;17.40;;;8.70;99.90;;;;;;4988743;28;20649;-70
2021/12/05 02:56:40;;;;;;;18.45;16.73;;;8.60;99.90;;;;;;4990012;28;20081;-72
2021/12/05 02:59:21;;;;;;;20.10;18.13;;;8.70;99.90;;;;;;4988578;28;20022;-71
2021/12/05 03:01:54;;;;;;;19.98;17.90;;;8.60;99.90;;;;;;4989728;28;20030;-71
2021/12/05 03:04:23;;;;;;;17.25;15.65;;;8.60;99.90;;;;;;4988700;28;20117;-71
2021/12/05 03:06:53;;;;;;;17.90;16.17;;;8.60;99.90;;;;;;4991046;28;20026;-70
2021/12/05 03:09:20;;;;;;;17.42;15.73;;;8.60;99.90;;;;;;4988374;28;20037;-71
2021/12/05 03:11:46;;;;;;;19.38;17.58;;;8.60;99.90;;;;;;4989084;28;20106;-70
2021/12/05 03:14:12;;;;;;;17.83;16.00;;;8.70;99.90;;;;;;4981654;28;20077;-71
2021/12/05 03:16:39;;;;;;;17.30;15.63;;;8.70;99.90;;;;;;4989776;28;20034;-70
2021/12/05 03:19:07;;;;;;;18.58;16.73;;;8.80;99.90;;;;;;4989673;28;20027;-71
2021/12/05 03:21:34;;;;;;;19.60;17.67;;;8.80;99.90;;;;;;4993056;28;20031;-70
2021/12/05 03:24:00;;;;;;;19.63;17.83;;;8.80;99.90;;;;;;4992519;28;20058;-72
2021/12/05 03:26:33;;;;;;;18.50;16.77;;;8.90;99.90;;;;;;4992412;28;20019;-71
2021/12/05 03:28:59;;;;;;;20.05;17.90;;;8.90;99.90;;;;;;4994723;28;20165;-71
2021/12/05 03:31:27;;;;;;;21.63;19.48;;;8.70;99.90;;;;;;4991617;28;20084;-71
2021/12/05 03:33:54;;;;;;;21.50;19.33;;;8.70;99.90;;;;;;4993334;28;20045;-71
2021/12/05 03:36:23;;;;;;;21.77;19.70;;;8.60;99.90;;;;;;4990714;28;20031;-72
2021/12/05 03:38:49;;;;;;;21.95;19.63;;;8.70;99.90;;;;;;4987073;28;20018;-72
2021/12/05 03:41:16;;;;;;;22.95;20.52;;;8.60;99.90;;;;;;4988826;28;20395;-71
2021/12/05 03:43:44;;;;;;;25.33;22.73;;;8.60;99.90;;;;;;4988306;28;20384;-71
2021/12/05 03:46:10;;;;;;;21.02;19.00;;;8.60;99.90;;;;;;4988885;28;20026;-71
2021/12/05 03:48:41;;;;;;;20.25;18.27;;;8.60;99.90;;;;;;4988479;28;20026;-71
2021/12/05 03:51:09;;;;;;;19.20;17.30;;;8.70;99.90;;;;;;4987566;28;20050;-72
2021/12/05 03:53:35;;;;;;;15.80;14.25;;;8.70;99.90;;;;;;4987207;28;20045;-71
2021/12/05 03:56:04;;;;;;;17.17;15.57;;;8.70;99.90;;;;;;4990363;28;20026;-72
2021/12/05 03:58:30;;;;;;;16.55;15.05;;;8.70;99.90;;;;;;4989907;28;20081;-72
2021/12/05 04:00:58;;;;;;;18.65;16.17;;;8.70;99.90;;;;;;4988499;28;20033;-72
2021/12/05 04:03:26;;;;;;;16.05;14.63;;;8.80;99.90;;;;;;4989628;28;20046;-72
2021/12/05 04:05:52;;;;;;;17.75;16.25;;;8.80;99.90;;;;;;4990144;28;20023;-72
2021/12/05 04:08:24;;;;;;;19.27;17.45;;;8.70;99.90;;;;;;4989959;28;20038;-72
2021/12/05 04:10:53;;;;;;;;;;;8.80;99.90;;;;;;4989126;28;20026;-72
2021/12/05 04:13:19;;;;;;;17.95;16.02;;;8.70;99.90;;;;;;4986606;28;19909;-72
2021/12/05 04:15:46;;;;;;;19.80;18.00;;;8.80;99.90;;;;;;4990949;28;20531;-72
2021/12/05 04:18:12;;;;;;;23.05;20.67;;;8.80;99.90;;;;;;4988683;28;20484;-71
2021/12/05 04:20:37;;;;;;;22.60;19.77;;;8.70;99.90;;;;;;4988755;28;20069;-71
2021/12/05 04:23:05;;;;;;;23.83;21.35;;;8.70;99.90;;;;;;4986777;28;20042;-71
2021/12/05 04:25:36;;;;;;;24.95;22.70;;;8.70;99.90;;;;;;4986622;28;20113;-71
2021/12/05 04:28:03;;;;;;;25.65;23.10;;;8.80;99.90;;;;;;4982263;28;20065;-71
2021/12/05 04:30:29;;;;;;;25.60;23.17;;;8.70;99.90;;;;;;4990073;28;20037;-72
2021/12/05 04:32:55;;;;;;;24.30;22.02;;;8.70;99.90;;;;;;4989724;28;20476;-71
2021/12/05 04:35:21;;;;;;;24.73;21.95;;;8.80;99.90;;;;;;4994689;28;20117;-71
2021/12/05 04:37:46;;;;;;;21.83;19.83;;;8.90;99.90;;;;;;4983735;28;20029;-72
2021/12/05 04:40:13;;;;;;;20.63;18.67;;;9.00;99.90;;;;;;4993274;28;20030;-72
2021/12/05 04:42:39;;;;;;;24.77;22.20;;;8.90;99.90;;;;;;4987161;28;20050;-71
2021/12/05 04:45:09;;;;;;;23.70;21.50;;;8.80;99.90;;;;;;4990976;28;20337;-72
2021/12/05 04:47:35;;;;;;;25.65;23.00;;;8.80;99.90;;;;;;4987868;28;20080;-72
2021/12/05 04:50:01;;;;;;;23.17;20.92;;;8.70;99.90;;;;;;4989057;28;20476;-72
2021/12/05 04:52:27;;;;;;;22.58;20.25;;;8.70;99.90;;;;;;4987138;28;20029;-72
2021/12/05 04:54:52;;;;;;;24.13;21.63;;;8.80;99.90;;;;;;4988878;28;20057;-71
2021/12/05 04:57:18;;;;;;;20.85;18.83;;;8.70;99.90;;;;;;4989599;28;20023;-72
2021/12/05 04:59:50;;;;;;;21.30;19.23;;;8.80;99.90;;;;;;4988835;28;20464;-71
2021/12/05 05:02:17;;;;;;;20.42;18.52;;;8.80;99.90;;;;;;4986880;28;20026;-70
2021/12/05 05:04:46;;;;;;;19.58;17.63;;;8.80;99.90;;;;;;4989545;28;20377;-71
2021/12/05 05:07:25;;;;;;;20.35;18.25;;;8.80;99.90;;;;;;4985424;28;20027;-71
2021/12/05 05:09:58;;;;;;;19.88;17.75;;;8.80;99.90;;;;;;4988890;28;20035;-71
2021/12/05 05:12:24;;;;;;;20.00;18.00;;;8.80;99.90;;;;;;4989491;28;21110;-70
2021/12/05 05:14:51;;;;;;;20.30;18.10;;;8.80;99.90;;;;;;4988813;28;20030;-72
2021/12/05 05:17:17;;;;;;;21.00;18.98;;;8.80;99.90;;;;;;4982881;28;20022;-72
2021/12/05 05:19:53;;;;;;;20.83;18.38;;;8.70;99.90;;;;;;4989623;28;20023;-72
2021/12/05 05:25:31;;;;;;;19.10;17.27;;;8.80;99.90;;;;;;4994400;28;20034;-71
2021/12/05 05:44:12;;;;;;;19.92;17.92;;;8.80;99.90;;;;;;4995601;28;20122;-71
2021/12/05 05:47:00;;;;;;;18.85;17.05;;;8.80;99.90;;;;;;4989620;28;20057;-73
2021/12/05 05:50:26;;;;;;;19.02;15.65;;;8.90;99.90;;;;;;4993996;28;20038;-71
2021/12/05 05:52:20;;;;;;;17.50;15.70;;;8.90;99.90;;;;;;4981962;28;20039;-71
2021/12/05 05:54:49;;;;;;;18.67;16.42;;;9.00;99.90;;;;;;4994016;28;20030;-71
2021/12/05 05:57:24;;;;;;;17.58;15.90;;;9.00;99.90;;;;;;4997407;28;20045;-71
2021/12/05 06:00:00;;;;;;;22.42;20.13;;;9.00;99.90;;;;;;4992977;28;20018;-72
2021/12/05 06:05:11;;;;;;;17.58;15.98;;;9.00;99.90;;;;;;4994190;28;20080;-71
2021/12/05 06:07:43;;;;;;;14.98;13.65;;;9.10;99.90;;;;;;4994393;28;20042;-71
2021/12/05 06:10:11;;;;;;;14.93;13.60;;;9.10;99.90;;;;;;4995778;28;20064;-72
2021/12/05 06:12:38;;;;;;;15.60;14.10;;;9.10;99.90;;;;;;4993037;28;20137;-71
2021/12/05 06:15:06;;;;;;;15.57;14.18;;;9.10;99.90;;;;;;4994472;28;20027;-72
2021/12/05 06:17:32;;;;;;;12.93;11.73;;;9.10;99.90;;;;;;4995030;28;20067;-72
2021/12/05 06:19:58;;;;;;;13.30;11.95;;;9.10;99.90;;;;;;4993682;28;20031;-71
2021/12/05 06:22:24;;;;;;;15.90;13.32;;;9.10;99.90;;;;;;4991586;28;20471;-72
2021/12/05 06:24:50;;;;;;;11.55;10.45;;;9.10;99.90;;;;;;4994001;28;20056;-72
2021/12/05 06:27:16;;;;;;;10.48;9.38;;;9.10;99.90;;;;;;4993270;28;20060;-73
2021/12/05 06:29:49;;;;;;;10.48;9.48;;;9.20;99.90;;;;;;4996843;28;20037;-71
2021/12/05 06:32:39;;;;;;;8.05;7.22;;;9.20;99.90;;;;;;4995792;28;20038;-71
2021/12/05 06:38:04;;;;;;;9.35;8.52;;;9.20;99.90;;;;;;4985782;28;20074;-72
2021/12/05 06:40:51;;;;;;;8.07;7.38;;;9.20;99.90;;;;;;4995017;28;20097;-71
2021/12/05 06:48:44;;;;;;;9.43;8.57;;;9.20;99.90;;;;;;4991190;28;20026;-72
2021/12/05 06:51:15;;;;;;;8.93;8.13;;;9.20;99.90;;;;;;4992263;28;20070;-72
2021/12/05 06:53:41;;;;;;;6.25;5.65;;;9.20;99.90;;;;;;4985905;28;20029;-72
2021/12/05 06:56:07;;;;;;;7.00;6.30;;;9.20;99.90;;;;;;4992026;28;20034;-72
2021/12/05 06:58:33;;;;;;;6.75;5.60;;;9.20;99.90;;;;;;4992463;28;20036;-72
2021/12/05 07:01:01;;;;;;;6.32;5.32;;;9.30;99.90;;;;;;4988704;28;20073;-71
2021/12/05 07:03:27;;;;;;;8.00;6.18;;;9.30;99.90;;;;;;4989698;28;20026;-72
2021/12/05 07:05:58;;;;;;;5.88;5.28;;;9.30;99.90;;;;;;4989132;28;20048;-71
2021/12/05 07:08:28;;;;;;;5.77;5.17;;;9.40;99.90;;;;;;4989598;28;20482;-73
2021/12/05 07:11:01;;;;;;;5.07;4.65;;;9.50;99.90;;;;;;4989563;28;20061;-73
2021/12/05 07:42:46;;;;;;;7.20;5.20;;;9.80;99.90;;;;;;4987562;28;20348;-72
2021/12/05 07:45:18;;;;;;;10.10;5.65;;;9.80;99.90;;;;;;4987336;28;20029;-72
2021/12/05 07:47:46;;;;;;;8.93;7.13;;;9.90;99.90;;;;;;4995856;28;20046;-72
2021/12/05 07:50:14;;;;;;;6.38;5.65;;;9.90;99.90;;;;;;4993563;28;20027;-72
2021/12/05 07:52:44;;;;;;;7.68;3.95;;;10.00;99.90;;;;;;4991348;28;20026;-72
2021/12/05 07:55:24;;;;;;;8.63;6.40;;;10.20;99.90;;;;;;4990092;28;20034;-72
2021/12/05 08:01:21;;;;;;;6.57;4.25;;;10.50;99.90;;;;;;4990829;28;20647;-72
2021/12/05 08:17:15;;;;;;;10.98;6.22;;;10.60;99.90;;;;;;4987950;28;20046;-73
2021/12/05 08:19:41;;;;;;;9.35;4.93;;;10.60;99.90;;;;;;4974127;28;20039;-72
2021/12/05 08:22:06;;;;;;;7.47;4.65;;;10.60;99.90;;;;;;4974869;28;20125;-71
2021/12/05 08:24:33;;;;;;;6.63;5.55;;;10.70;99.90;;;;;;4991215;28;20025;-72
2021/12/05 08:27:00;;;;;;;12.75;8.93;;;10.70;99.90;;;;;;4991884;28;20024;-73
2021/12/05 08:29:37;;;;;;;12.43;10.68;;;10.50;99.90;;;;;;4992378;28;20026;-73
2021/12/05 08:32:55;;;;;;;23.63;12.05;;;9.80;99.90;;;;;;5000915;28;20025;-73
2021/12/05 08:40:31;;;;;;;25.60;16.73;;;8.60;99.90;;;;;;4990235;28;20114;-72
2021/12/05 08:45:47;;;;;;;23.13;14.63;;;8.10;99.90;;;;;;4993279;28;20173;-72
2021/12/05 10:07:18;;;;;;;9.57;8.48;;;9.30;99.90;;;;;;4993093;28;20516;-69
2021/12/05 10:12:57;;;;;;;8.40;7.68;;;9.10;99.90;;;;;;4993273;28;20161;-69
2021/12/05 10:15:36;;;;;;;11.77;8.50;;;9.00;99.90;;;;;;4992071;28;20085;-69
2021/12/05 10:35:22;;;;;;;16.83;14.43;;;8.30;99.90;;;;;;4993789;28;20077;-69
2021/12/05 10:37:53;;;;;;;17.20;15.48;;;8.20;99.90;;;;;;4993731;28;20172;-69
2021/12/05 10:40:34;;;;;;;15.20;12.77;;;8.10;99.90;;;;;;4993303;28;20033;-68
2021/12/05 10:43:00;;;;;;;15.00;12.90;;;8.10;99.90;;;;;;4993531;28;20178;-69
2021/12/05 10:45:28;;;;;;;14.45;12.27;;;8.10;99.90;;;;;;5007379;28;20030;-68
2021/12/05 10:47:56;;;;;;;12.50;10.88;;;8.00;99.90;;;;;;5012890;28;20030;-68
2021/12/05 10:50:31;;;;;;;13.63;11.20;;;8.00;99.90;;;;;;5013226;28;20034;-68
2021/12/05 10:53:27;;;;;;;27.13;20.10;;;8.10;99.90;;;;;;4996889;28;20022;-69
2021/12/05 10:56:08;;;;;;;23.52;16.10;;;8.30;99.90;;;;;;4993353;28;20027;-69
2021/12/05 10:58:40;;;;;;;20.38;14.73;;;8.30;99.90;;;;;;4992496;28;20026;-69
2021/12/05 11:01:12;;;;;;;18.58;15.55;;;8.30;99.90;;;;;;4992675;28;20109;-69
2021/12/05 11:03:40;;;;;;;14.43;12.93;;;8.40;99.90;;;;;;4992942;28;20096;-69
2021/12/05 11:06:18;;;;;;;17.05;13.73;;;8.30;99.90;;;;;;4993282;28;20033;-68
2021/12/05 11:08:43;;;;;;;14.40;12.85;;;8.30;99.90;;;;;;4989971;28;20050;-69
2021/12/05 11:11:16;;;;;;;19.05;13.60;;;8.20;99.90;;;;;;4992875;28;20030;-72
2021/12/05 11:13:44;;;;;;;18.73;13.55;;;8.20;99.90;;;;;;4991729;28;20034;-72
2021/12/05 11:16:31;;;;;;;15.38;12.02;;;8.40;99.90;;;;;;4991551;28;20027;-72
2021/12/05 11:18:57;;;;;;;12.85;11.60;;;8.70;99.90;;;;;;4993065;28;20088;-71
2021/12/05 11:21:24;;;;;;;10.82;9.75;;;8.90;99.90;;;;;;4993152;28;20026;-71
2021/12/05 11:24:08;;;;;;;13.68;10.13;;;8.90;99.90;;;;;;4993218;28;20022;-71
2021/12/05 11:26:34;;;;;;;18.05;12.90;;;8.80;99.90;;;;;;4993007;28;20518;-72
2021/12/05 11:29:00;;;;;;;12.98;11.68;;;8.70;99.90;;;;;;4996065;28;20042;-73
2021/12/05 11:31:28;;;;;;;17.45;14.55;;;8.60;99.90;;;;;;5000561;28;20126;-73
2021/12/05 11:33:55;;;;;;;9.68;8.73;;;8.50;99.90;;;;;;4995124;28;20029;-72
2021/12/05 11:36:28;;;;;;;20.35;13.13;;;8.40;99.90;;;;;;4994966;28;20054;-71
2021/12/05 11:38:55;;;;;;;22.17;12.38;;;8.30;99.90;;;;;;4995411;28;20038;-70
2021/12/05 11:41:23;;;;;;;12.88;11.15;;;8.30;99.90;;;;;;4995118;28;20026;-69
2021/12/05 11:43:54;;;;;;;15.90;12.20;;;8.30;99.90;;;;;;4992648;28;20018;-69
2021/12/05 11:46:31;;;;;;;11.52;9.57;;;8.30;99.90;;;;;;4991505;28;20113;-71
2021/12/05 11:49:10;;;;;;;11.27;10.13;;;8.40;99.90;;;;;;4992531;28;20026;-69
2021/12/05 11:51:47;;;;;;;11.80;10.60;;;8.50;99.90;;;;;;4989377;28;20044;-69
2021/12/05 11:54:24;;;;;;;11.65;9.93;;;8.50;99.90;;;;;;4990248;28;20080;-70
2021/12/05 11:56:59;;;;;;;11.18;10.00;;;8.50;99.90;;;;;;4992145;28;20030;-69
2021/12/05 11:59:35;;;;;;;9.27;8.38;;;8.50;99.90;;;;;;4991597;28;20057;-71
2021/12/05 12:02:19;;;;;;;13.02;9.65;;;8.50;99.90;;;;;;5003842;28;20027;-69
2021/12/05 12:05:07;;;;;;;9.10;8.20;;;8.60;99.90;;;;;;4989502;28;20040;-69
2021/12/05 12:07:53;;;;;;;11.88;9.32;;;8.60;99.90;;;;;;4993879;28;20037;-70
2021/12/05 12:10:47;;;;;;;9.35;8.52;;;8.60;99.90;;;;;;4977515;28;20497;-69
2021/12/05 12:13:16;;;;;;;9.02;7.88;;;8.60;99.90;;;;;;4991890;28;20121;-69
2021/12/05 12:15:43;;;;;;;10.30;9.30;;;8.60;99.90;;;;;;4991393;28;20041;-70
2021/12/05 12:18:21;;;;;;;13.85;12.23;;;8.70;99.90;;;;;;4992339;28;20034;-70
2021/12/05 12:20:48;;;;;;;15.63;12.73;;;8.70;99.90;;;;;;4994375;28;20117;-71
2021/12/05 12:23:15;;;;;;;13.10;11.80;;;8.60;99.90;;;;;;4992840;28;20057;-70
2021/12/05 12:25:44;;;;;;;13.65;12.20;;;8.60;99.90;;;;;;4992351;28;20026;-69
2021/12/05 12:28:11;;;;;;;11.25;10.02;;;8.60;99.90;;;;;;4991240;28;20027;-69
2021/12/05 12:30:40;;;;;;;13.52;12.27;;;8.50;99.90;;;;;;4990734;28;20062;-70
2021/12/05 12:33:13;;;;;;;15.40;13.43;;;8.50;99.90;;;;;;4991921;28;20053;-69
2021/12/05 12:35:40;;;;;;;17.80;12.85;;;8.50;99.90;;;;;;4990020;28;20027;-69
2021/12/05 12:38:08;;;;;;;16.20;14.10;;;8.40;99.90;;;;;;4991165;28;20029;-70
2021/12/05 12:40:54;;;;;;;15.30;13.70;;;8.50;99.90;;;;;;4990596;28;20057;-70
2021/12/05 12:43:51;;;;;;;14.80;13.35;;;8.50;99.90;;;;;;4992279;28;20019;-70
2021/12/05 12:46:34;;;;;;;14.30;12.45;;;8.50;99.90;;;;;;4992113;28;20022;-69
2021/12/05 12:49:15;;;;;;;15.75;13.50;;;8.50;99.90;;;;;;4982046;28;20042;-70
2021/12/05 12:51:49;;;;;;;14.02;10.20;;;8.40;99.90;;;;;;4980905;28;20314;-70
2021/12/05 12:54:23;;;;;;;15.73;14.18;;;8.30;99.90;;;;;;4991137;28;20042;-70
2021/12/05 12:57:13;;;;;;;19.35;17.30;;;8.30;99.90;;;;;;4999483;28;20618;-69
2021/12/05 12:59:47;;;;;;;19.25;16.15;;;8.20;99.90;;;;;;4990407;28;20034;-69
2021/12/05 13:10:44;;;;;;;18.42;15.25;;;8.30;99.90;;;;;;4987918;28;20041;-70
2021/12/05 13:13:26;;;;;;;20.00;16.58;;;8.30;99.90;;;;;;4990919;28;20114;-70
2021/12/05 13:15:57;;;;;;;16.70;15.00;;;8.40;99.90;;;;;;4991142;28;20551;-70
2021/12/05 13:18:33;;;;;;;21.20;16.95;;;8.40;99.90;;;;;;4993423;28;20077;-70
2021/12/05 13:21:11;;;;;;;15.25;13.80;;;8.40;99.90;;;;;;4990097;28;20447;-69
2021/12/05 13:23:37;;;;;;;21.48;16.88;;;8.40;99.90;;;;;;4989420;28;20425;-70
2021/12/05 13:26:23;;;;;;;25.08;20.92;;;8.40;99.90;;;;;;4995805;28;20023;-70
2021/12/05 13:28:49;;;;;;;21.08;18.33;;;8.40;99.90;;;;;;4993449;28;20072;-70
2021/12/05 13:31:27;;;;;;;22.52;20.15;;;8.40;99.90;;;;;;4990983;28;20058;-70
2021/12/05 13:34:22;;;;;;;24.02;21.52;;;8.40;99.90;;;;;;4991453;28;20046;-71
2021/12/05 13:37:06;;;;;;;24.95;20.48;;;8.40;99.90;;;;;;4990394;28;20038;-71
2021/12/05 13:40:01;;;;;;;22.10;19.95;;;8.40;99.90;;;;;;4990449;28;20077;-71
2021/12/05 13:42:39;;;;;;;19.73;17.73;;;8.50;99.90;;;;;;4993472;28;20026;-70
2021/12/05 13:45:06;;;;;;;21.23;18.65;;;8.50;99.90;;;;;;4992518;28;20033;-73
2021/12/05 13:47:37;;;;;;;21.42;16.25;;;8.40;99.90;;;;;;4992270;28;20109;-70
2021/12/05 13:50:28;;;;;;;19.83;17.83;;;8.40;99.90;;;;;;4992826;28;20428;-73
2021/12/05 13:53:03;;;;;;;20.38;18.33;;;8.30;99.90;;;;;;4987908;28;20299;-71
2021/12/05 13:55:53;;;;;;;19.85;17.92;;;8.30;99.90;;;;;;4991857;28;20040;-71
2021/12/05 13:58:45;;;;;;;21.90;17.23;;;8.20;99.90;;;;;;4990801;28;20022;-71
2021/12/05 14:01:11;;;;;;;28.50;24.83;;;8.00;99.90;;;;;;4990143;28;20027;-73
2021/12/05 14:04:04;;;;;;;24.42;21.80;;;8.00;99.90;;;;;;4991679;28;20122;-71
2021/12/05 14:06:35;;;;;;;14.95;12.50;;;8.00;99.90;;;;;;4986756;28;20026;-71
2021/12/05 14:09:10;;;;;;;13.80;12.50;;;8.00;99.90;;;;;;4991870;28;20022;-71
2021/12/05 14:11:41;;;;;;;7.50;6.78;;;7.90;99.90;;;;;;4995802;28;20168;-71
2021/12/05 14:14:08;;;;;;;6.47;5.40;;;7.80;99.90;;;;;;5000674;28;20415;-72
2021/12/05 14:16:37;;;;;;;3.40;3.03;;;7.80;99.90;;;;;;5003073;28;20034;-73
2021/12/05 14:19:05;;;;;;;6.40;4.75;;;7.70;99.90;;;;;;4998023;28;20025;-73
2021/12/05 14:21:32;;;;;;;5.18;3.85;;;7.70;99.90;;;;;;4998363;28;20019;-73
2021/12/05 14:24:00;;;;;;;5.88;5.05;;;7.60;99.90;;;;;;4993711;28;20508;-71
2021/12/05 14:26:30;;;;;;;7.35;5.40;;;7.60;99.90;;;;;;4992766;28;20167;-73
2021/12/05 14:29:18;;;;;;;6.85;6.25;;;7.60;99.90;;;;;;4986958;28;20030;-74
2021/12/05 14:31:51;;;;;;;10.07;6.20;;;7.60;99.90;;;;;;4992176;28;20058;-72
2021/12/05 14:34:21;;;;;;;9.95;7.85;;;7.70;99.90;;;;;;4985448;28;20022;-73
2021/12/05 14:36:53;;;;;;;12.13;9.38;;;7.80;99.90;;;;;;4991816;28;20030;-74
2021/12/05 14:39:25;;;;;;;13.02;10.23;;;7.80;99.90;;;;;;4993363;28;20464;-73
2021/12/05 14:41:57;;;;;;;17.98;15.10;;;7.80;99.90;;;;;;4992190;28;20039;-73
2021/12/05 14:44:23;;;;;;;20.40;15.88;;;8.00;99.90;;;;;;4993213;28;20053;-73
2021/12/05 14:46:51;;;;;;;17.55;14.48;;;7.90;99.90;;;;;;4994185;28;20088;-71
2021/12/05 14:49:16;;;;;;;19.40;15.98;;;8.00;99.90;;;;;;4985910;28;20061;-73
2021/12/05 14:51:44;;;;;;;19.13;13.90;;;8.10;99.90;;;;;;4985757;28;20026;-73
2021/12/05 14:54:16;;;;;;;15.77;13.05;;;8.10;99.90;;;;;;4981876;28;20420;-71
2021/12/05 14:56:41;;;;;;;21.13;14.40;;;8.20;99.90;;;;;;4984777;28;20477;-71
2021/12/05 14:59:12;;;;;;;17.95;15.18;;;8.20;99.90;;;;;;4985029;28;20041;-72
2021/12/05 15:01:41;;;;;;;17.10;15.48;;;8.30;99.90;;;;;;4984420;28;20145;-70
2021/12/05 15:04:10;;;;;;;16.00;13.93;;;8.30;99.90;;;;;;4984609;28;20026;-72
2021/12/05 15:06:42;;;;;;;14.27;12.35;;;8.30;99.90;;;;;;4984529;28;20050;-70
2021/12/05 15:09:21;;;;;;;11.00;9.35;;;8.30;99.90;;;;;;4985291;28;20183;-71
2021/12/05 15:11:57;;;;;;;11.60;9.20;;;8.30;99.90;;;;;;4983298;28;20041;-71
2021/12/05 15:14:24;;;;;;;15.13;10.40;;;8.30;99.90;;;;;;4983416;28;20018;-72
2021/12/05 15:16:56;;;;;;;9.77;7.72;;;8.40;99.90;;;;;;4988340;28;20513;-71
2021/12/05 15:19:22;;;;;;;8.85;6.53;;;8.40;99.90;;;;;;4994058;28;20034;-71
2021/12/05 15:21:48;;;;;;;7.90;6.15;;;8.50;99.90;;;;;;4989444;28;20034;-71
2021/12/05 15:24:16;;;;;;;6.22;3.30;;;8.50;99.90;;;;;;4993030;28;20030;-71
2021/12/05 15:26:43;;;;;;;8.27;3.58;;;8.40;99.90;;;;;;4987941;28;20096;-72
2021/12/05 15:29:08;;;;;;;1.08;0.80;;;8.30;99.90;;;;;;4993286;28;20042;-70
2021/12/05 15:31:37;;;;;;;2.38;1.63;;;8.00;99.90;;;;;;4993377;28;20022;-71
2021/12/05 15:34:21;;;;;;;1.40;1.00;;;7.80;99.90;;;;;;4990849;28;20077;-73
2021/12/05 15:36:47;;;;;;;1.58;1.10;;;7.70;99.90;;;;;;4998154;28;20566;-69
2021/12/05 15:39:19;;;;;;;1.23;1.08;;;7.70;99.90;;;;;;4991497;28;20360;-70
2021/12/05 15:41:50;;;;;;;2.08;0.95;;;7.80;99.90;;;;;;4991032;28;20703;-70
2021/12/05 15:44:33;;;;;;;1.58;0.93;;;7.90;99.90;;;;;;5000916;28;20030;-72
2021/12/05 15:47:05;;;;;;;1.30;1.20;;;7.80;99.90;;;;;;5004633;28;20445;-69
2021/12/05 15:50:02;;;;;;;1.63;1.50;;;7.80;99.90;;;;;;4992498;28;20520;-70
2021/12/05 15:52:35;;;;;;;1.80;1.67;;;7.90;99.90;;;;;;4980459;28;20039;-74
2021/12/05 15:55:04;;;;;;;0.70;0.70;;;8.00;99.90;;;;;;4991002;28;20081;-72
2021/12/05 15:57:36;;;;;;;2.00;1.20;;;7.90;99.90;;;;;;4991271;28;20064;-71
2021/12/05 16:00:17;;;;;;;3.50;1.08;;;7.90;99.90;;;;;;4991946;28;20022;-72
2021/12/05 16:02:47;;;;;;;1.02;0.88;;;7.90;99.90;;;;;;4991996;28;20029;-69
2021/12/05 16:05:21;;;;;;;0.40;0.40;;;7.80;99.90;;;;;;4992160;28;20544;-70
2021/12/05 16:07:49;;;;;;;0.95;0.70;;;7.80;99.90;;;;;;4992446;28;20504;-70
2021/12/05 16:10:21;;;;;;;3.55;0.70;;;7.70;99.90;;;;;;4991488;28;20395;-73
2021/12/05 16:12:49;;;;;;;0.95;0.88;;;7.70;99.90;;;;;;4992259;28;20054;-73
2021/12/05 16:15:18;;;;;;;1.33;1.02;;;7.70;99.90;;;;;;4992343;28;20477;-72
2021/12/05 16:17:56;;;;;;;0.82;0.70;;;7.70;99.90;;;;;;4992805;28;20027;-71
2021/12/05 16:20:26;;;;;;;1.27;0.63;;;7.70;99.90;;;;;;4991872;28;20065;-70
2021/12/05 16:23:04;;;;;;;0.60;0.50;;;7.70;99.90;;;;;;4991999;28;20027;-70
2021/12/05 16:25:30;;;;;;;0.98;0.77;;;7.70;99.90;;;;;;4989566;28;20533;-72
2021/12/05 16:28:02;;;;;;;0.68;0.65;;;7.70;99.90;;;;;;4991758;28;20034;-72
2021/12/05 16:30:32;;;;;;;1.08;0.70;;;7.70;99.90;;;;;;4991936;28;20034;-73
2021/12/05 16:33:03;;;;;;;1.35;0.60;;;7.70;99.90;;;;;;4992272;28;20077;-74
2021/12/05 16:35:29;;;;;;;0.60;0.60;;;7.60;99.90;;;;;;4991876;28;20117;-73
2021/12/05 16:37:55;;;;;;;1.20;0.90;;;7.60;99.90;;;;;;4991529;28;20097;-72
2021/12/05 16:40:21;;;;;;;0.40;0.40;;;7.60;99.90;;;;;;4990299;28;20042;-75
2021/12/05 16:42:46;;;;;;;0.88;0.80;;;7.60;99.90;;;;;;4992463;28;20022;-72
2021/12/05 16:45:12;;;;;;;1.05;0.85;;;7.60;99.90;;;;;;4990745;28;20027;-74
2021/12/05 16:47:39;;;;;;;0.75;0.73;;;7.60;99.90;;;;;;4991269;28;20116;-74
2021/12/05 16:50:11;;;;;;;1.20;0.93;;;7.60;99.90;;;;;;4991189;28;20544;-73
2021/12/05 16:52:46;;;;;;;2.22;0.80;;;7.60;99.90;;;;;;4992531;28;20027;-74
2021/12/05 16:55:27;;;;;;;1.50;0.85;;;7.60;99.90;;;;;;4991490;28;20061;-73
2021/12/05 16:58:10;;;;;;;1.42;1.25;;;7.70;99.90;;;;;;4988685;28;20065;-75
2021/12/05 17:00:39;;;;;;;1.15;1.08;;;7.70;99.90;;;;;;4990621;28;20027;-74
2021/12/05 17:03:07;;;;;;;0.45;0.45;;;7.70;99.90;;;;;;4995817;28;20371;-77
2021/12/05 17:05:36;;;;;;;2.17;1.08;;;7.80;99.90;;;;;;4991561;28;20049;-73
2021/12/05 17:08:20;;;;;;;0.65;0.63;;;7.80;99.90;;;;;;5006341;28;20046;-75
2021/12/05 17:10:53;;;;;;;1.42;1.20;;;7.90;99.90;;;;;;4987740;28;20026;-75
2021/12/05 17:13:46;;;;;;;1.52;0.90;;;7.90;99.90;;;;;;4990312;28;20030;-74
2021/12/05 17:16:26;;;;;;;2.75;1.90;;;7.80;99.90;;;;;;4989992;28;20038;-74
2021/12/05 17:19:08;;;;;;;0.90;0.70;;;7.80;99.90;;;;;;4990937;28;20105;-74
2021/12/05 17:21:47;;;;;;;1.10;1.00;;;7.90;99.90;;;;;;4991860;28;20026;-73
2021/12/05 17:24:18;;;;;;;2.17;1.30;;;7.90;99.90;;;;;;4990193;28;20361;-72
2021/12/05 17:26:55;;;;;;;1.35;1.02;;;7.90;99.90;;;;;;4991642;28;20029;-74
2021/12/05 17:29:32;;;;;;;2.03;0.85;;;7.90;99.90;;;;;;5006883;28;20045;-73
2021/12/05 17:32:09;;;;;;;1.20;0.80;;;7.90;99.90;;;;;;4992969;28;20030;-74
2021/12/05 17:34:40;;;;;;;1.38;0.60;;;7.90;99.90;;;;;;5007580;28;20026;-74
2021/12/05 17:37:16;;;;;;;1.02;0.43;;;7.90;99.90;;;;;;5012663;28;20060;-74
2021/12/05 17:39:44;;;;;;;0.40;0.40;;;7.90;99.90;;;;;;4995568;28;20037;-74
2021/12/05 17:42:15;;;;;;;0.82;0.70;;;7.90;99.90;;;;;;4991578;28;20029;-75
2021/12/05 17:44:42;;;;;;;0.68;0.60;;;8.00;99.90;;;;;;4992289;28;20057;-74
2021/12/05 17:47:10;;;;;;;1.88;1.05;;;8.00;99.90;;;;;;4991339;28;20353;-75
2021/12/05 17:49:38;;;;;;;0.88;0.70;;;8.00;99.90;;;;;;4992573;28;20404;-74
2021/12/05 17:52:06;;;;;;;1.55;1.05;;;8.00;99.90;;;;;;4992354;28;20133;-74
2021/12/05 17:54:39;;;;;;;0.77;0.73;;;8.00;99.90;;;;;;4991360;28;20044;-74
2021/12/05 17:57:11;;;;;;;3.38;1.05;;;8.10;99.90;;;;;;4990386;28;20062;-74
2021/12/05 18:00:01;;;;;;;1.17;1.00;;;8.10;99.90;;;;;;4988032;28;20025;-74
2021/12/05 18:05:18;;;;;;;0.65;0.65;;;8.00;99.90;;;;;;4992586;28;20038;-75
2021/12/05 18:07:44;;;;;;;1.42;0.95;;;8.00;99.90;;;;;;4989551;28;20030;-73
2021/12/05 18:10:12;;;;;;;0.73;0.60;;;8.10;99.90;;;;;;4987095;28;20081;-74
2021/12/05 18:12:38;;;;;;;1.90;1.23;;;8.10;99.90;;;;;;4987965;28;20038;-73
2021/12/05 18:15:13;;;;;;;1.65;0.90;;;8.00;99.90;;;;;;4986526;28;20496;-74
2021/12/05 18:17:40;;;;;;;1.27;1.02;;;8.10;99.90;;;;;;4981694;28;20681;-74
2021/12/05 18:20:09;;;;;;;2.33;1.13;;;8.10;99.90;;;;;;4987638;28;20040;-74
2021/12/05 18:22:35;;;;;;;1.15;0.80;;;8.10;99.90;;;;;;4988420;28;20026;-73
2021/12/05 18:25:02;;;;;;;1.50;0.90;;;8.20;99.90;;;;;;4989403;28;20492;-73
2021/12/05 18:27:28;;;;;;;2.83;1.58;;;8.20;99.90;;;;;;4986401;28;20031;-73
2021/12/05 18:29:53;;;;;;;1.30;1.20;;;8.20;99.90;;;;;;4990468;28;20114;-74
2021/12/05 18:32:19;;;;;;;0.75;0.60;;;8.10;99.90;;;;;;4993021;28;20037;-74
2021/12/05 18:34:46;;;;;;;0.90;0.70;;;8.10;99.90;;;;;;4991385;28;20030;-74
2021/12/05 18:37:14;;;;;;;3.13;1.20;;;8.10;99.90;;;;;;4984900;28;20121;-74